»·PEaware :: N3558U KSNA-KCRQ

N3558U :: KSNA-KCRQ

FLIGHT INFORMATION

Flight Status: Arrived
Operator: Privately registered:
United States
More flights under this callsign
Pilot: Fahad A. (533)
Aircraft: CESSNA 172 SKYHAWK
(C172)
More flights by this aircraft type
Origin: KSNA John Wayne-Orange Co
United States
Destination: KCRQ McClellan-Palomar
United States
More flights between these airports :: More routes between these airports
Route: V23 OCN
File this flight plan on PilotEdge
Remarks:
Altitude:
(Current/Filed)
5,000ft
Speed:
(Current/Filed)
105kts
Departed: 14-Jan-22 10:14 AM
Arrived: 14-Jan-22 11:26 AM
Distance/Time
Traveled:
44nm/1:12
Distance/Time
To Go:
Arrived

Flight Plot

Page will automatically refresh every two minutes.


Map Options




Map Legend


Flown Route
Filed Route
Departure Airport
Arrival Airport
Navaid (VOR, NDB)
Fix

Horizontal Profiles

Position Reports

Time Latitude Longitude Heading Altitude Ground
Speed
14-Jan-22 09:37 33.676153 -117.870775 357 52ft 0kts
14-Jan-22 09:38 33.676153 -117.870775 357 52ft 0kts
14-Jan-22 09:39 33.676153 -117.870775 357 52ft 0kts
14-Jan-22 09:40 33.676153 -117.870775 357 52ft 0kts
14-Jan-22 09:41 33.676153 -117.870775 357 52ft 0kts
14-Jan-22 09:42 33.676153 -117.870775 357 52ft 0kts
14-Jan-22 09:43 33.676153 -117.870775 357 52ft 0kts
14-Jan-22 09:44 33.676153 -117.870775 357 52ft 0kts
14-Jan-22 09:45 33.676153 -117.870775 357 52ft 0kts
14-Jan-22 09:46 33.676153 -117.870775 357 52ft 0kts
14-Jan-22 09:47 33.676153 -117.870775 357 52ft 0kts
14-Jan-22 09:48 33.676153 -117.870775 357 52ft 0kts
14-Jan-22 09:49 33.676153 -117.870775 357 52ft 0kts
14-Jan-22 09:50 33.676153 -117.870775 357 52ft 0kts
14-Jan-22 09:51 33.676153 -117.870775 357 52ft 0kts
14-Jan-22 09:52 33.676153 -117.870775 357 52ft 0kts
14-Jan-22 09:53 33.676153 -117.870775 357 52ft 0kts
14-Jan-22 09:54 33.676153 -117.870775 357 52ft 0kts
14-Jan-22 09:55 33.676153 -117.870775 357 52ft 0kts
14-Jan-22 09:56 33.676153 -117.870775 357 52ft 0kts
14-Jan-22 09:57 33.676153 -117.870775 357 52ft 0kts
14-Jan-22 09:58 33.676153 -117.870775 357 52ft 0kts
14-Jan-22 09:59 33.676153 -117.870775 357 52ft 0kts
14-Jan-22 10:00 33.676153 -117.870775 357 52ft 0kts
14-Jan-22 10:01 33.676153 -117.870775 357 52ft 0kts
14-Jan-22 10:02 33.676153 -117.870775 357 52ft 0kts
14-Jan-22 10:03 33.676153 -117.870775 357 52ft 0kts
14-Jan-22 10:04 33.676153 -117.870775 357 52ft 0kts
14-Jan-22 10:05 33.676153 -117.870775 357 52ft 0kts
14-Jan-22 10:06 33.676153 -117.870775 357 52ft 0kts
14-Jan-22 10:07 33.676153 -117.870775 357 52ft 0kts
14-Jan-22 10:08 33.676153 -117.870775 357 52ft 0kts
14-Jan-22 10:09 33.676153 -117.870775 357 52ft 0kts
14-Jan-22 10:10 33.676476 -117.869847 27 53ft 8kts
14-Jan-22 10:11 33.680703 -117.867383 28 43ft 19kts
14-Jan-22 10:12 33.681098 -117.866141 116 42ft 12kts
14-Jan-22 10:13 33.668353 -117.873052 194 306ft 86kts
14-Jan-22 10:14 33.643140 -117.877328 185 1070ft 93kts
14-Jan-22 10:15 33.617457 -117.881095 185 1879ft 87kts
14-Jan-22 10:16 33.590514 -117.885384 186 2442ft 103kts
14-Jan-22 10:17 33.563513 -117.889593 186 3229ft 89kts
14-Jan-22 10:18 33.541091 -117.888161 98 3941ft 83kts
14-Jan-22 10:19 33.535355 -117.858143 101 4468ft 99kts
14-Jan-22 10:20 33.528729 -117.824432 101 4965ft 108kts
14-Jan-22 10:21 33.527917 -117.785044 87 5014ft 120kts
14-Jan-22 10:22 33.525341 -117.747041 122 5004ft 118kts
14-Jan-22 10:23 33.502401 -117.717788 133 5001ft 120kts
14-Jan-22 10:24 33.478491 -117.689272 135 4996ft 121kts
14-Jan-22 10:25 33.454156 -117.661157 135 4996ft 122kts
14-Jan-22 10:26 33.429404 -117.633271 135 4991ft 122kts
14-Jan-22 10:27 33.404465 -117.605217 136 4991ft 122kts
14-Jan-22 10:28 33.379649 -117.577319 135 4995ft 122kts
14-Jan-22 10:29 33.354734 -117.549336 136 4995ft 123kts
14-Jan-22 10:30 33.344470 -117.528069 101 4991ft 120kts
14-Jan-22 10:36 33.294253 -117.278561 101 5007ft 126kts
14-Jan-22 10:37 33.286196 -117.237690 101 4999ft 125kts
14-Jan-22 10:42 33.676080 -117.870909 219 60ft 0kts
14-Jan-22 10:43 33.676080 -117.870909 219 60ft 0kts
14-Jan-22 10:44 33.676080 -117.870909 219 60ft 0kts
14-Jan-22 10:45 33.676080 -117.870909 219 60ft 0kts
14-Jan-22 10:46 33.676080 -117.870909 219 60ft 0kts
14-Jan-22 10:47 33.676080 -117.870909 219 60ft 0kts
14-Jan-22 10:48 33.678941 -117.868275 26 60ft 26kts
14-Jan-22 10:49 33.681216 -117.866612 93 60ft 0kts
14-Jan-22 10:50 33.673123 -117.870468 205 285ft 78kts
14-Jan-22 10:51 33.648927 -117.875720 185 1363ft 83kts
14-Jan-22 10:52 33.625620 -117.878781 185 2370ft 80kts
14-Jan-22 10:53 33.605719 -117.869190 111 3212ft 89kts
14-Jan-22 10:54 33.594645 -117.837999 109 4114ft 92kts
14-Jan-22 10:55 33.579086 -117.808602 133 4865ft 109kts
14-Jan-22 10:56 33.551146 -117.778972 136 4981ft 126kts
14-Jan-22 10:57 33.524118 -117.748597 134 4981ft 126kts
14-Jan-22 10:58 33.495993 -117.715860 134 4981ft 126kts
14-Jan-22 10:59 33.468262 -117.683399 134 4981ft 126kts
14-Jan-22 11:00 33.440874 -117.651343 133 4990ft 126kts
14-Jan-22 11:01 33.413909 -117.619793 133 4990ft 126kts
14-Jan-22 11:02 33.387127 -117.588485 133 4991ft 126kts
14-Jan-22 11:03 33.359566 -117.557603 140 4962ft 127kts
14-Jan-22 11:04 33.333385 -117.525823 133 4964ft 126kts
14-Jan-22 11:05 33.322243 -117.483532 100 4967ft 124kts
14-Jan-22 11:06 33.313327 -117.437965 100 4971ft 124kts
14-Jan-22 11:07 33.304672 -117.393777 100 5006ft 123kts
14-Jan-22 11:08 33.295715 -117.348001 101 5008ft 124kts
14-Jan-22 11:09 33.287056 -117.303802 101 5007ft 124kts
14-Jan-22 11:10 33.278660 -117.260763 101 5002ft 123kts
14-Jan-22 11:11 33.270404 -117.218381 101 4998ft 123kts
14-Jan-22 11:12 33.262134 -117.175862 101 5002ft 123kts
14-Jan-22 11:13 33.253840 -117.133156 101 5000ft 123kts
14-Jan-22 11:15 33.245494 -117.090096 101 5000ft 123kts
14-Jan-22 11:16 33.237154 -117.046892 101 5001ft 124kts
14-Jan-22 11:17 33.228892 -117.003844 101 5002ft 124kts
14-Jan-22 11:18 33.194615 -116.992540 212 4515ft 139kts
14-Jan-22 11:19 33.171961 -117.033392 258 3843ft 137kts
14-Jan-22 11:20 33.162505 -117.080737 257 3600ft 119kts
14-Jan-22 11:21 33.153844 -117.123515 257 3601ft 117kts
14-Jan-22 11:22 33.146864 -117.165527 261 3393ft 123kts
14-Jan-22 11:23 33.139354 -117.211574 258 1982ft 114kts
14-Jan-22 11:24 33.133510 -117.247934 258 915ft 82kts
14-Jan-22 11:25 33.129301 -117.273417 260 328ft 46kts
14-Jan-22 11:26 33.127198 -117.281538 259 321ft 15kts

Navigation Log

Ident Type
Flight plan parsing failed, navigation log unavailable